KTVF/TVF METAR and TAF weather

Enter ICAO airport designator
Station Type Date Time Source
KTVF METAR 2022/08/16 19:56 UTC NOAA

KTVF 161956Z AUTO 21008KT 10SM SCT015 OVC027 23/21 A3007 RMK AO2 SLP182 T02280211


Station Type Date Time Source
KTVF Decoded METAR 2022/08/16 19:56 UTC NOAA

Thief River Falls, Thief River Falls Regional Airport, MN, United States (KTVF) 48-04N 096-11W
Aug 16, 2022 - 03:56 PM EDT / 2022.08.16 1956 UTC
Wind: from the SSW (210 degrees) at 9 MPH (8 KT):0
Visibility: 10 mile(s):0
Sky conditions: overcast
Temperature: 73.0 F (22.8 C)
Dew Point: 70.0 F (21.1 C)
Relative Humidity: 90%
Pressure (altimeter): 30.07 in. Hg (1018 hPa)
ob: KTVF 161956Z AUTO 21008KT 10SM SCT015 OVC027 23/21 A3007 RMK AO2 SLP182 T02280211
cycle: 20

Station Type Date Time Source
KTVF TAF 2022/08/16 18:42 UTC NOAA

TAF KTVF 161740Z 1618/1718 24010KT P6SM OVC011
FM162000 29007KT P6SM SCT050
FM170000 VRB03KT P6SM SCT200

Example: see airport list